Ora Direzione Vento Velocita' Vento Media Vento Raffica Max. Temperatura Wind Chill Pioggia Pressione
10:50:50.0348 °(NNW)7.8 Kts8.7 Kts11.3 Kts24.7 °C22.9 °C0.0 mm983.0 Hpa
10:30:12.0340 °(NNW)7.0 Kts7.8 Kts9.6 Kts24.9 °C23.2 °C0.0 mm982.9 Hpa
10:10:40.0346 °(NNW)6.1 Kts7.8 Kts8.7 Kts25.1 °C23.5 °C0.0 mm982.9 Hpa
09:49:50.0359 °(N)4.3 Kts3.5 Kts6.1 Kts25.6 °C25.6 °C0.0 mm982.9 Hpa
09:30:21.079 °(E)1.7 Kts1.7 Kts6.1 Kts25.9 °C25.9 °C0.0 mm982.7 Hpa
09:10:47.058 °(ENE)1.7 Kts0.9 Kts6.1 Kts26.6 °C26.6 °C0.0 mm982.7 Hpa
08:49:52.0139 °(SE)1.7 Kts1.7 Kts6.1 Kts26.2 °C26.2 °C0.0 mm982.4 Hpa
08:30:19.0169 °(S)1.7 Kts1.7 Kts6.1 Kts25.8 °C25.8 °C0.0 mm982.2 Hpa
08:09:50.0245 °(WSW)0.9 Kts0.9 Kts6.1 Kts25.3 °C25.3 °C0.0 mm982.0 Hpa
07:50:23.0143 °(SE)2.6 Kts1.7 Kts6.1 Kts23.9 °C23.9 °C0.0 mm981.9 Hpa
07:29:48.0177 °(S)1.7 Kts3.5 Kts6.1 Kts23.2 °C23.2 °C0.0 mm981.7 Hpa
07:10:36.0215 °(SW)0.0 Kts1.7 Kts6.1 Kts23.1 °C23.1 °C0.0 mm981.6 Hpa
06:49:56.0263 °(W)2.6 Kts0.0 Kts6.1 Kts21.7 °C-17.8 °C0.0 mm981.2 Hpa
06:30:42.00 °(N)0.0 Kts0.0 Kts6.1 Kts0.0 °C0.0 °C0.0 mm981.2 Hpa
06:10:14.00 °(N)0.0 Kts0.0 Kts6.1 Kts0.0 °C0.0 °C0.0 mm980.9 Hpa
05:50:44.0202 °(SSW)1.7 Kts2.6 Kts6.1 Kts19.3 °C19.3 °C0.0 mm980.9 Hpa
05:30:26.0237 °(WSW)2.6 Kts1.7 Kts6.1 Kts19.6 °C19.6 °C0.0 mm980.7 Hpa
05:09:59.0232 °(SW)2.6 Kts1.7 Kts5.2 Kts19.2 °C19.2 °C0.0 mm980.7 Hpa
04:50:49.0177 °(S)3.5 Kts3.5 Kts5.2 Kts19.2 °C19.2 °C0.0 mm980.5 Hpa
04:30:22.0195 °(SSW)2.6 Kts2.6 Kts5.2 Kts19.5 °C19.5 °C0.0 mm980.6 Hpa